sensor_id;sensor_type;location;lat;lon;timestamp;temperature;humidity
15288;DHT22;7745;48.708;9.026;2022-07-23T00:00:28;23.50;99.90
15288;DHT22;7745;48.708;9.026;2022-07-23T00:02:55;23.50;99.90
15288;DHT22;7745;48.708;9.026;2022-07-23T00:05:21;23.40;99.90
15288;DHT22;7745;48.708;9.026;2022-07-23T00:07:48;23.30;99.90
15288;DHT22;7745;48.708;9.026;2022-07-23T00:10:15;23.30;99.90
15288;DHT22;7745;48.708;9.026;2022-07-23T00:12:42;23.20;99.90
15288;DHT22;7745;48.708;9.026;2022-07-23T00:15:09;23.20;99.90
15288;DHT22;7745;48.708;9.026;2022-07-23T00:17:38;23.20;99.90
15288;DHT22;7745;48.708;9.026;2022-07-23T00:20:06;23.20;99.90
15288;DHT22;7745;48.708;9.026;2022-07-23T00:22:33;23.20;99.90
15288;DHT22;7745;48.708;9.026;2022-07-23T00:25:00;23.10;99.90
15288;DHT22;7745;48.708;9.026;2022-07-23T00:27:27;23.10;99.90
15288;DHT22;7745;48.708;9.026;2022-07-23T00:29:53;23.10;99.90
15288;DHT22;7745;48.708;9.026;2022-07-23T00:32:20;23.10;99.90
15288;DHT22;7745;48.708;9.026;2022-07-23T00:34:49;23.00;99.90
15288;DHT22;7745;48.708;9.026;2022-07-23T00:37:15;23.00;99.90
15288;DHT22;7745;48.708;9.026;2022-07-23T00:39:42;22.80;99.90
15288;DHT22;7745;48.708;9.026;2022-07-23T00:42:09;22.70;99.90
15288;DHT22;7745;48.708;9.026;2022-07-23T00:44:36;22.50;99.90
15288;DHT22;7745;48.708;9.026;2022-07-23T00:47:03;22.40;99.90
15288;DHT22;7745;48.708;9.026;2022-07-23T00:49:31;22.40;99.90
15288;DHT22;7745;48.708;9.026;2022-07-23T00:52:01;22.30;99.90
15288;DHT22;7745;48.708;9.026;2022-07-23T00:54:28;22.30;99.90
15288;DHT22;7745;48.708;9.026;2022-07-23T00:56:55;22.20;99.90
15288;DHT22;7745;48.708;9.026;2022-07-23T00:59:22;22.20;99.90
15288;DHT22;7745;48.708;9.026;2022-07-23T01:01:49;22.10;99.90
15288;DHT22;7745;48.708;9.026;2022-07-23T01:04:16;22.10;99.90
15288;DHT22;7745;48.708;9.026;2022-07-23T01:06:44;22.10;99.90
15288;DHT22;7745;48.708;9.026;2022-07-23T01:09:13;22.10;99.90
15288;DHT22;7745;48.708;9.026;2022-07-23T01:11:41;22.20;99.90
15288;DHT22;7745;48.708;9.026;2022-07-23T01:14:12;22.10;99.90
15288;DHT22;7745;48.708;9.026;2022-07-23T01:16:40;22.10;99.90
15288;DHT22;7745;48.708;9.026;2022-07-23T01:19:07;22.00;99.90
15288;DHT22;7745;48.708;9.026;2022-07-23T01:21:37;22.00;99.90
15288;DHT22;7745;48.708;9.026;2022-07-23T01:24:06;22.00;99.90
15288;DHT22;7745;48.708;9.026;2022-07-23T01:26:34;22.00;99.90
15288;DHT22;7745;48.708;9.026;2022-07-23T01:29:01;22.00;99.90
15288;DHT22;7745;48.708;9.026;2022-07-23T01:31:28;22.00;99.90
15288;DHT22;7745;48.708;9.026;2022-07-23T01:33:56;21.90;99.90
15288;DHT22;7745;48.708;9.026;2022-07-23T01:36:23;22.00;99.90
15288;DHT22;7745;48.708;9.026;2022-07-23T01:38:50;21.90;99.90
15288;DHT22;7745;48.708;9.026;2022-07-23T01:41:18;21.80;99.90
15288;DHT22;7745;48.708;9.026;2022-07-23T01:43:45;21.80;99.90
15288;DHT22;7745;48.708;9.026;2022-07-23T01:46:12;21.80;99.90
15288;DHT22;7745;48.708;9.026;2022-07-23T01:48:39;21.70;99.90
15288;DHT22;7745;48.708;9.026;2022-07-23T01:51:06;21.70;99.90
15288;DHT22;7745;48.708;9.026;2022-07-23T01:53:34;21.60;99.90
15288;DHT22;7745;48.708;9.026;2022-07-23T01:56:01;21.60;99.90
15288;DHT22;7745;48.708;9.026;2022-07-23T01:58:30;21.50;99.90
15288;DHT22;7745;48.708;9.026;2022-07-23T02:00:57;21.50;99.90
15288;DHT22;7745;48.708;9.026;2022-07-23T02:03:24;21.50;99.90
15288;DHT22;7745;48.708;9.026;2022-07-23T02:05:51;21.50;99.90
15288;DHT22;7745;48.708;9.026;2022-07-23T02:08:18;21.50;99.90
15288;DHT22;7745;48.708;9.026;2022-07-23T02:10:45;21.40;99.90
15288;DHT22;7745;48.708;9.026;2022-07-23T02:13:12;21.40;99.90
15288;DHT22;7745;48.708;9.026;2022-07-23T02:15:41;21.40;99.90
15288;DHT22;7745;48.708;9.026;2022-07-23T02:18:07;21.30;99.90
15288;DHT22;7745;48.708;9.026;2022-07-23T02:20:34;21.30;99.90
15288;DHT22;7745;48.708;9.026;2022-07-23T02:23:04;21.30;99.90
15288;DHT22;7745;48.708;9.026;2022-07-23T02:25:31;21.30;99.90
15288;DHT22;7745;48.708;9.026;2022-07-23T02:27:58;21.20;99.90
15288;DHT22;7745;48.708;9.026;2022-07-23T02:30:25;21.20;99.90
15288;DHT22;7745;48.708;9.026;2022-07-23T02:32:53;21.10;99.90
15288;DHT22;7745;48.708;9.026;2022-07-23T02:35:20;21.10;99.90
15288;DHT22;7745;48.708;9.026;2022-07-23T02:37:47;21.10;99.90
15288;DHT22;7745;48.708;9.026;2022-07-23T02:40:14;21.10;99.90
15288;DHT22;7745;48.708;9.026;2022-07-23T02:42:40;21.10;99.90
15288;DHT22;7745;48.708;9.026;2022-07-23T02:45:08;21.10;99.90
15288;DHT22;7745;48.708;9.026;2022-07-23T02:47:35;21.10;99.90
15288;DHT22;7745;48.708;9.026;2022-07-23T02:50:04;21.10;99.90
15288;DHT22;7745;48.708;9.026;2022-07-23T02:52:32;21.10;99.90
15288;DHT22;7745;48.708;9.026;2022-07-23T02:54:59;21.10;99.90
15288;DHT22;7745;48.708;9.026;2022-07-23T02:57:26;21.10;99.90
15288;DHT22;7745;48.708;9.026;2022-07-23T02:59:53;21.10;99.90
15288;DHT22;7745;48.708;9.026;2022-07-23T03:02:20;21.10;99.90
15288;DHT22;7745;48.708;9.026;2022-07-23T03:04:47;21.00;99.90
15288;DHT22;7745;48.708;9.026;2022-07-23T03:07:16;21.00;99.90
15288;DHT22;7745;48.708;9.026;2022-07-23T03:09:42;21.10;99.90
15288;DHT22;7745;48.708;9.026;2022-07-23T03:12:09;21.00;99.90
15288;DHT22;7745;48.708;9.026;2022-07-23T03:14:36;21.00;99.90
15288;DHT22;7745;48.708;9.026;2022-07-23T03:17:03;21.00;99.90
15288;DHT22;7745;48.708;9.026;2022-07-23T03:19:30;21.00;99.90
15288;DHT22;7745;48.708;9.026;2022-07-23T03:21:57;21.00;99.90
15288;DHT22;7745;48.708;9.026;2022-07-23T03:24:25;21.00;99.90
15288;DHT22;7745;48.708;9.026;2022-07-23T03:27:13;20.90;99.90
15288;DHT22;7745;48.708;9.026;2022-07-23T03:29:39;20.90;99.90
15288;DHT22;7745;48.708;9.026;2022-07-23T03:32:06;20.90;99.90
15288;DHT22;7745;48.708;9.026;2022-07-23T03:34:33;20.90;99.90
15288;DHT22;7745;48.708;9.026;2022-07-23T03:37:00;20.80;99.90
15288;DHT22;7745;48.708;9.026;2022-07-23T03:39:29;20.80;99.90
15288;DHT22;7745;48.708;9.026;2022-07-23T03:41:56;20.80;99.90
15288;DHT22;7745;48.708;9.026;2022-07-23T03:44:23;20.80;99.90
15288;DHT22;7745;48.708;9.026;2022-07-23T03:46:50;20.80;99.90
15288;DHT22;7745;48.708;9.026;2022-07-23T03:49:17;20.70;99.90
15288;DHT22;7745;48.708;9.026;2022-07-23T03:51:44;20.70;99.90
15288;DHT22;7745;48.708;9.026;2022-07-23T03:54:11;20.70;99.90
15288;DHT22;7745;48.708;9.026;2022-07-23T03:56:39;20.70;99.90
15288;DHT22;7745;48.708;9.026;2022-07-23T03:59:06;20.70;99.90
15288;DHT22;7745;48.708;9.026;2022-07-23T04:01:33;20.60;99.90
15288;DHT22;7745;48.708;9.026;2022-07-23T04:03:59;20.70;99.90
15288;DHT22;7745;48.708;9.026;2022-07-23T04:06:26;20.60;99.90
15288;DHT22;7745;48.708;9.026;2022-07-23T04:08:54;20.70;99.90
15288;DHT22;7745;48.708;9.026;2022-07-23T04:11:21;20.60;99.90
15288;DHT22;7745;48.708;9.026;2022-07-23T04:13:49;20.50;99.90
15288;DHT22;7745;48.708;9.026;2022-07-23T04:16:16;20.40;99.90
15288;DHT22;7745;48.708;9.026;2022-07-23T04:18:43;20.40;99.90
15288;DHT22;7745;48.708;9.026;2022-07-23T04:21:10;20.30;99.90
15288;DHT22;7745;48.708;9.026;2022-07-23T04:23:36;20.30;99.90
15288;DHT22;7745;48.708;9.026;2022-07-23T04:26:03;20.30;99.90
15288;DHT22;7745;48.708;9.026;2022-07-23T04:28:30;20.30;99.90
15288;DHT22;7745;48.708;9.026;2022-07-23T04:30:59;20.30;99.90
15288;DHT22;7745;48.708;9.026;2022-07-23T04:33:26;20.20;99.90
15288;DHT22;7745;48.708;9.026;2022-07-23T04:35:53;20.30;99.90
15288;DHT22;7745;48.708;9.026;2022-07-23T04:38:19;20.20;99.90
15288;DHT22;7745;48.708;9.026;2022-07-23T04:40:46;20.20;99.90
15288;DHT22;7745;48.708;9.026;2022-07-23T04:43:13;20.20;99.90
15288;DHT22;7745;48.708;9.026;2022-07-23T04:45:40;20.30;99.90
15288;DHT22;7745;48.708;9.026;2022-07-23T04:48:08;20.40;99.90
15288;DHT22;7745;48.708;9.026;2022-07-23T04:50:35;20.40;99.90
15288;DHT22;7745;48.708;9.026;2022-07-23T04:53:02;20.30;99.90
15288;DHT22;7745;48.708;9.026;2022-07-23T04:55:29;20.40;99.90
15288;DHT22;7745;48.708;9.026;2022-07-23T04:57:56;20.40;99.90
15288;DHT22;7745;48.708;9.026;2022-07-23T05:00:23;20.50;99.90
15288;DHT22;7745;48.708;9.026;2022-07-23T05:02:50;20.60;99.90
15288;DHT22;7745;48.708;9.026;2022-07-23T05:05:18;20.70;99.90
15288;DHT22;7745;48.708;9.026;2022-07-23T05:07:45;20.80;99.90
15288;DHT22;7745;48.708;9.026;2022-07-23T05:10:12;20.70;99.90
15288;DHT22;7745;48.708;9.026;2022-07-23T05:12:38;20.70;99.90
15288;DHT22;7745;48.708;9.026;2022-07-23T05:15:06;20.70;99.90
15288;DHT22;7745;48.708;9.026;2022-07-23T05:17:33;20.80;99.90
15288;DHT22;7745;48.708;9.026;2022-07-23T05:19:59;20.90;99.90
15288;DHT22;7745;48.708;9.026;2022-07-23T05:22:28;21.00;99.90
15288;DHT22;7745;48.708;9.026;2022-07-23T05:24:55;21.00;99.90
15288;DHT22;7745;48.708;9.026;2022-07-23T05:27:22;21.20;99.90
15288;DHT22;7745;48.708;9.026;2022-07-23T05:29:51;21.20;99.90
15288;DHT22;7745;48.708;9.026;2022-07-23T05:32:18;21.40;99.90
15288;DHT22;7745;48.708;9.026;2022-07-23T05:34:45;21.50;99.90
15288;DHT22;7745;48.708;9.026;2022-07-23T05:37:12;21.60;99.90
15288;DHT22;7745;48.708;9.026;2022-07-23T05:39:40;21.60;99.90
15288;DHT22;7745;48.708;9.026;2022-07-23T05:42:07;21.70;99.90
15288;DHT22;7745;48.708;9.026;2022-07-23T05:44:36;21.80;99.90
15288;DHT22;7745;48.708;9.026;2022-07-23T05:47:04;21.80;99.90
15288;DHT22;7745;48.708;9.026;2022-07-23T05:49:31;21.80;99.90
15288;DHT22;7745;48.708;9.026;2022-07-23T05:51:57;21.80;99.90
15288;DHT22;7745;48.708;9.026;2022-07-23T05:54:24;21.80;99.90
15288;DHT22;7745;48.708;9.026;2022-07-23T05:56:53;21.90;99.90
15288;DHT22;7745;48.708;9.026;2022-07-23T05:59:19;22.00;99.90
15288;DHT22;7745;48.708;9.026;2022-07-23T06:01:46;21.90;99.90
15288;DHT22;7745;48.708;9.026;2022-07-23T06:04:13;22.10;99.90
15288;DHT22;7745;48.708;9.026;2022-07-23T06:06:40;22.10;99.90
15288;DHT22;7745;48.708;9.026;2022-07-23T06:09:07;22.10;99.90
15288;DHT22;7745;48.708;9.026;2022-07-23T06:11:35;22.20;99.90
15288;DHT22;7745;48.708;9.026;2022-07-23T06:14:03;22.30;99.90
15288;DHT22;7745;48.708;9.026;2022-07-23T06:16:30;22.40;99.90
15288;DHT22;7745;48.708;9.026;2022-07-23T06:18:57;22.30;99.90
15288;DHT22;7745;48.708;9.026;2022-07-23T06:21:24;22.30;99.90
15288;DHT22;7745;48.708;9.026;2022-07-23T06:23:51;22.50;99.90
15288;DHT22;7745;48.708;9.026;2022-07-23T06:26:18;22.60;99.90
15288;DHT22;7745;48.708;9.026;2022-07-23T06:28:45;22.80;99.90
15288;DHT22;7745;48.708;9.026;2022-07-23T06:31:13;22.90;99.90
15288;DHT22;7745;48.708;9.026;2022-07-23T06:33:40;23.00;99.90
15288;DHT22;7745;48.708;9.026;2022-07-23T06:36:07;23.00;99.90
15288;DHT22;7745;48.708;9.026;2022-07-23T06:38:34;23.10;99.90
15288;DHT22;7745;48.708;9.026;2022-07-23T06:41:00;23.10;99.90
15288;DHT22;7745;48.708;9.026;2022-07-23T06:43:28;22.90;99.90
15288;DHT22;7745;48.708;9.026;2022-07-23T06:45:56;22.80;99.90
15288;DHT22;7745;48.708;9.026;2022-07-23T06:48:24;22.70;99.90
15288;DHT22;7745;48.708;9.026;2022-07-23T06:50:51;22.70;99.90
15288;DHT22;7745;48.708;9.026;2022-07-23T06:53:18;22.60;99.90
15288;DHT22;7745;48.708;9.026;2022-07-23T06:55:45;22.50;99.90
15288;DHT22;7745;48.708;9.026;2022-07-23T06:58:12;22.50;99.90
15288;DHT22;7745;48.708;9.026;2022-07-23T07:00:39;22.50;99.90
15288;DHT22;7745;48.708;9.026;2022-07-23T07:03:06;22.50;99.90
15288;DHT22;7745;48.708;9.026;2022-07-23T07:05:34;22.50;99.90
15288;DHT22;7745;48.708;9.026;2022-07-23T07:08:01;22.50;99.90
15288;DHT22;7745;48.708;9.026;2022-07-23T07:10:28;22.40;99.90
15288;DHT22;7745;48.708;9.026;2022-07-23T07:12:55;22.40;99.90
15288;DHT22;7745;48.708;9.026;2022-07-23T07:15:21;22.30;99.90
15288;DHT22;7745;48.708;9.026;2022-07-23T07:17:49;22.30;99.90
15288;DHT22;7745;48.708;9.026;2022-07-23T07:20:16;22.30;99.90
15288;DHT22;7745;48.708;9.026;2022-07-23T07:22:44;22.30;99.90
15288;DHT22;7745;48.708;9.026;2022-07-23T07:25:11;22.40;99.90
15288;DHT22;7745;48.708;9.026;2022-07-23T07:27:37;22.30;99.90
15288;DHT22;7745;48.708;9.026;2022-07-23T07:30:05;22.30;99.90
15288;DHT22;7745;48.708;9.026;2022-07-23T07:32:33;22.30;99.90
15288;DHT22;7745;48.708;9.026;2022-07-23T07:35:02;22.50;99.90
15288;DHT22;7745;48.708;9.026;2022-07-23T07:37:29;22.70;99.90
15288;DHT22;7745;48.708;9.026;2022-07-23T07:39:57;22.80;99.90
15288;DHT22;7745;48.708;9.026;2022-07-23T07:42:24;23.00;99.90
15288;DHT22;7745;48.708;9.026;2022-07-23T07:44:51;23.20;99.90
15288;DHT22;7745;48.708;9.026;2022-07-23T07:47:18;23.50;99.90
15288;DHT22;7745;48.708;9.026;2022-07-23T07:49:44;23.70;99.90
15288;DHT22;7745;48.708;9.026;2022-07-23T07:52:13;23.90;99.90
15288;DHT22;7745;48.708;9.026;2022-07-23T07:54:40;23.80;99.90
15288;DHT22;7745;48.708;9.026;2022-07-23T07:57:09;23.60;99.90
15288;DHT22;7745;48.708;9.026;2022-07-23T07:59:36;23.70;99.90
15288;DHT22;7745;48.708;9.026;2022-07-23T08:02:03;23.70;99.90
15288;DHT22;7745;48.708;9.026;2022-07-23T08:04:30;23.70;99.90
15288;DHT22;7745;48.708;9.026;2022-07-23T08:06:57;23.70;99.90
15288;DHT22;7745;48.708;9.026;2022-07-23T08:09:24;23.70;99.90
15288;DHT22;7745;48.708;9.026;2022-07-23T08:11:51;23.60;99.90
15288;DHT22;7745;48.708;9.026;2022-07-23T08:14:21;23.40;99.90
15288;DHT22;7745;48.708;9.026;2022-07-23T08:16:48;23.20;99.90
15288;DHT22;7745;48.708;9.026;2022-07-23T08:19:15;23.20;99.90
15288;DHT22;7745;48.708;9.026;2022-07-23T08:21:41;23.00;99.90
15288;DHT22;7745;48.708;9.026;2022-07-23T08:24:08;22.90;99.90
15288;DHT22;7745;48.708;9.026;2022-07-23T08:26:35;22.90;99.90
15288;DHT22;7745;48.708;9.026;2022-07-23T08:29:02;23.00;99.90
15288;DHT22;7745;48.708;9.026;2022-07-23T08:31:31;23.20;99.90
15288;DHT22;7745;48.708;9.026;2022-07-23T08:33:58;23.40;99.90
15288;DHT22;7745;48.708;9.026;2022-07-23T08:36:25;23.60;99.90
15288;DHT22;7745;48.708;9.026;2022-07-23T08:38:53;23.70;99.90
15288;DHT22;7745;48.708;9.026;2022-07-23T08:41:20;23.70;99.90
15288;DHT22;7745;48.708;9.026;2022-07-23T08:43:47;23.70;99.90
15288;DHT22;7745;48.708;9.026;2022-07-23T08:46:14;23.80;99.90
15288;DHT22;7745;48.708;9.026;2022-07-23T08:48:42;24.00;99.90
15288;DHT22;7745;48.708;9.026;2022-07-23T08:51:09;24.20;99.90
15288;DHT22;7745;48.708;9.026;2022-07-23T08:53:36;24.30;99.90
15288;DHT22;7745;48.708;9.026;2022-07-23T08:56:04;24.30;99.90
15288;DHT22;7745;48.708;9.026;2022-07-23T08:58:32;24.20;99.90
15288;DHT22;7745;48.708;9.026;2022-07-23T09:00:59;24.10;99.90
15288;DHT22;7745;48.708;9.026;2022-07-23T09:03:28;24.20;99.90
15288;DHT22;7745;48.708;9.026;2022-07-23T09:05:58;24.30;99.90
15288;DHT22;7745;48.708;9.026;2022-07-23T09:08:34;24.40;99.90
15288;DHT22;7745;48.708;9.026;2022-07-23T09:11:03;24.70;99.90
15288;DHT22;7745;48.708;9.026;2022-07-23T09:13:35;24.90;99.90
15288;DHT22;7745;48.708;9.026;2022-07-23T09:16:06;25.00;99.90
15288;DHT22;7745;48.708;9.026;2022-07-23T09:18:36;25.20;99.90
15288;DHT22;7745;48.708;9.026;2022-07-23T09:21:14;25.40;99.90
15288;DHT22;7745;48.708;9.026;2022-07-23T09:23:42;25.50;99.90
15288;DHT22;7745;48.708;9.026;2022-07-23T09:26:21;25.80;99.90
15288;DHT22;7745;48.708;9.026;2022-07-23T09:28:54;26.00;99.90
15288;DHT22;7745;48.708;9.026;2022-07-23T09:31:22;25.90;99.90
15288;DHT22;7745;48.708;9.026;2022-07-23T09:33:49;25.80;99.90
15288;DHT22;7745;48.708;9.026;2022-07-23T09:36:27;25.70;99.90
15288;DHT22;7745;48.708;9.026;2022-07-23T09:38:54;25.70;99.90
15288;DHT22;7745;48.708;9.026;2022-07-23T09:41:21;25.80;99.90
15288;DHT22;7745;48.708;9.026;2022-07-23T09:43:55;26.00;99.90
15288;DHT22;7745;48.708;9.026;2022-07-23T09:46:24;26.10;99.90
15288;DHT22;7745;48.708;9.026;2022-07-23T09:48:52;26.10;99.90
15288;DHT22;7745;48.708;9.026;2022-07-23T09:51:20;26.10;99.90
15288;DHT22;7745;48.708;9.026;2022-07-23T09:53:52;26.10;99.90
15288;DHT22;7745;48.708;9.026;2022-07-23T09:56:20;26.00;99.90
15288;DHT22;7745;48.708;9.026;2022-07-23T09:58:50;26.00;99.90
15288;DHT22;7745;48.708;9.026;2022-07-23T10:01:17;26.10;99.90
15288;DHT22;7745;48.708;9.026;2022-07-23T10:03:46;26.30;99.90
15288;DHT22;7745;48.708;9.026;2022-07-23T10:06:14;26.30;99.90
15288;DHT22;7745;48.708;9.026;2022-07-23T10:08:44;26.20;99.90
15288;DHT22;7745;48.708;9.026;2022-07-23T10:11:13;26.20;99.90
15288;DHT22;7745;48.708;9.026;2022-07-23T10:13:42;26.10;99.90
15288;DHT22;7745;48.708;9.026;2022-07-23T10:16:20;26.10;99.90
15288;DHT22;7745;48.708;9.026;2022-07-23T10:18:48;26.30;99.90
15288;DHT22;7745;48.708;9.026;2022-07-23T10:21:20;26.40;99.90
15288;DHT22;7745;48.708;9.026;2022-07-23T10:24:07;26.60;99.90
15288;DHT22;7745;48.708;9.026;2022-07-23T10:26:41;26.70;99.90
15288;DHT22;7745;48.708;9.026;2022-07-23T10:29:23;26.90;99.90
15288;DHT22;7745;48.708;9.026;2022-07-23T10:32:00;27.00;99.90
15288;DHT22;7745;48.708;9.026;2022-07-23T10:34:36;27.00;99.90
15288;DHT22;7745;48.708;9.026;2022-07-23T10:37:13;26.90;99.90
15288;DHT22;7745;48.708;9.026;2022-07-23T10:39:43;26.60;99.90
15288;DHT22;7745;48.708;9.026;2022-07-23T10:42:11;26.40;99.90
15288;DHT22;7745;48.708;9.026;2022-07-23T10:44:40;26.40;99.90
15288;DHT22;7745;48.708;9.026;2022-07-23T10:47:08;26.30;99.90
15288;DHT22;7745;48.708;9.026;2022-07-23T10:49:42;26.10;99.90
15288;DHT22;7745;48.708;9.026;2022-07-23T10:52:19;26.10;99.90
15288;DHT22;7745;48.708;9.026;2022-07-23T10:54:50;26.20;99.90
15288;DHT22;7745;48.708;9.026;2022-07-23T10:57:18;26.40;99.90
15288;DHT22;7745;48.708;9.026;2022-07-23T11:00:15;26.50;99.90
15288;DHT22;7745;48.708;9.026;2022-07-23T11:02:46;26.50;99.90
15288;DHT22;7745;48.708;9.026;2022-07-23T11:05:14;26.50;99.90
15288;DHT22;7745;48.708;9.026;2022-07-23T11:08:09;26.60;99.90
15288;DHT22;7745;48.708;9.026;2022-07-23T11:10:39;26.50;99.90
15288;DHT22;7745;48.708;9.026;2022-07-23T11:13:25;26.50;99.90
15288;DHT22;7745;48.708;9.026;2022-07-23T11:16:06;26.60;99.90
15288;DHT22;7745;48.708;9.026;2022-07-23T11:19:00;26.50;99.90
15288;DHT22;7745;48.708;9.026;2022-07-23T11:21:43;26.60;99.90
15288;DHT22;7745;48.708;9.026;2022-07-23T11:24:11;26.50;99.90
15288;DHT22;7745;48.708;9.026;2022-07-23T11:26:46;26.60;99.90
15288;DHT22;7745;48.708;9.026;2022-07-23T11:29:48;26.80;99.90
15288;DHT22;7745;48.708;9.026;2022-07-23T11:32:23;26.90;99.90
15288;DHT22;7745;48.708;9.026;2022-07-23T11:34:51;26.90;99.90
15288;DHT22;7745;48.708;9.026;2022-07-23T11:37:36;27.00;99.90
15288;DHT22;7745;48.708;9.026;2022-07-23T11:40:07;27.10;99.90
15288;DHT22;7745;48.708;9.026;2022-07-23T11:42:38;27.20;99.90
15288;DHT22;7745;48.708;9.026;2022-07-23T11:45:07;27.30;99.90
15288;DHT22;7745;48.708;9.026;2022-07-23T11:47:34;27.30;99.90
15288;DHT22;7745;48.708;9.026;2022-07-23T11:50:05;27.40;99.90
15288;DHT22;7745;48.708;9.026;2022-07-23T11:52:32;27.40;99.90
15288;DHT22;7745;48.708;9.026;2022-07-23T11:55:02;27.50;99.90
15288;DHT22;7745;48.708;9.026;2022-07-23T11:57:31;27.60;99.90
15288;DHT22;7745;48.708;9.026;2022-07-23T12:00:03;27.60;99.90
15288;DHT22;7745;48.708;9.026;2022-07-23T12:02:30;27.50;99.90
15288;DHT22;7745;48.708;9.026;2022-07-23T12:04:57;27.30;99.90
15288;DHT22;7745;48.708;9.026;2022-07-23T12:07:30;27.30;99.90
15288;DHT22;7745;48.708;9.026;2022-07-23T12:09:59;27.20;99.90
15288;DHT22;7745;48.708;9.026;2022-07-23T12:12:27;27.10;99.90
15288;DHT22;7745;48.708;9.026;2022-07-23T12:14:55;26.90;99.90
15288;DHT22;7745;48.708;9.026;2022-07-23T12:17:30;26.80;99.90
15288;DHT22;7745;48.708;9.026;2022-07-23T12:19:58;26.80;99.90
15288;DHT22;7745;48.708;9.026;2022-07-23T12:22:26;26.80;99.90
15288;DHT22;7745;48.708;9.026;2022-07-23T12:25:00;27.00;99.90
15288;DHT22;7745;48.708;9.026;2022-07-23T12:27:28;27.10;99.90
15288;DHT22;7745;48.708;9.026;2022-07-23T12:29:55;27.10;99.90
15288;DHT22;7745;48.708;9.026;2022-07-23T12:32:23;27.00;99.90
15288;DHT22;7745;48.708;9.026;2022-07-23T12:35:04;27.00;99.90
15288;DHT22;7745;48.708;9.026;2022-07-23T12:37:32;27.00;99.90
15288;DHT22;7745;48.708;9.026;2022-07-23T12:40:27;27.00;99.90
15288;DHT22;7745;48.708;9.026;2022-07-23T12:42:57;27.00;99.90
15288;DHT22;7745;48.708;9.026;2022-07-23T12:45:25;27.10;99.90
15288;DHT22;7745;48.708;9.026;2022-07-23T12:48:15;27.20;99.90
15288;DHT22;7745;48.708;9.026;2022-07-23T12:50:48;27.30;99.90
15288;DHT22;7745;48.708;9.026;2022-07-23T12:53:17;27.50;99.90
15288;DHT22;7745;48.708;9.026;2022-07-23T12:55:45;27.50;99.90
15288;DHT22;7745;48.708;9.026;2022-07-23T12:58:14;27.50;99.90
15288;DHT22;7745;48.708;9.026;2022-07-23T13:00:56;27.50;99.90
15288;DHT22;7745;48.708;9.026;2022-07-23T13:03:26;27.60;99.90
15288;DHT22;7745;48.708;9.026;2022-07-23T13:05:59;27.70;99.90
15288;DHT22;7745;48.708;9.026;2022-07-23T13:08:28;27.80;99.90
15288;DHT22;7745;48.708;9.026;2022-07-23T13:10:55;27.80;99.90
15288;DHT22;7745;48.708;9.026;2022-07-23T13:13:23;28.00;99.90
15288;DHT22;7745;48.708;9.026;2022-07-23T13:15:51;27.90;99.90
15288;DHT22;7745;48.708;9.026;2022-07-23T13:18:19;28.10;99.90
15288;DHT22;7745;48.708;9.026;2022-07-23T13:20:47;28.20;99.90
15288;DHT22;7745;48.708;9.026;2022-07-23T13:23:16;28.20;99.90
15288;DHT22;7745;48.708;9.026;2022-07-23T13:25:43;28.10;99.90
15288;DHT22;7745;48.708;9.026;2022-07-23T13:28:10;28.00;99.90
15288;DHT22;7745;48.708;9.026;2022-07-23T13:30:37;27.90;99.90
15288;DHT22;7745;48.708;9.026;2022-07-23T13:33:04;27.60;99.90
15288;DHT22;7745;48.708;9.026;2022-07-23T13:35:31;27.50;99.90
15288;DHT22;7745;48.708;9.026;2022-07-23T13:37:58;27.40;99.90
15288;DHT22;7745;48.708;9.026;2022-07-23T13:40:27;27.30;99.90
15288;DHT22;7745;48.708;9.026;2022-07-23T13:42:54;27.20;99.90
15288;DHT22;7745;48.708;9.026;2022-07-23T13:45:21;27.20;99.90
15288;DHT22;7745;48.708;9.026;2022-07-23T13:47:48;27.00;99.90
15288;DHT22;7745;48.708;9.026;2022-07-23T13:50:14;27.10;99.90
15288;DHT22;7745;48.708;9.026;2022-07-23T13:52:42;27.00;99.90
15288;DHT22;7745;48.708;9.026;2022-07-23T13:55:09;27.00;99.90
15288;DHT22;7745;48.708;9.026;2022-07-23T13:57:38;27.00;99.90
15288;DHT22;7745;48.708;9.026;2022-07-23T14:00:07;27.00;99.90
15288;DHT22;7745;48.708;9.026;2022-07-23T14:02:35;27.00;99.90
15288;DHT22;7745;48.708;9.026;2022-07-23T14:05:04;27.00;99.90
15288;DHT22;7745;48.708;9.026;2022-07-23T14:07:31;26.90;99.90
15288;DHT22;7745;48.708;9.026;2022-07-23T14:09:58;26.90;99.90
15288;DHT22;7745;48.708;9.026;2022-07-23T14:12:25;26.90;99.90
15288;DHT22;7745;48.708;9.026;2022-07-23T14:14:53;26.90;99.90
15288;DHT22;7745;48.708;9.026;2022-07-23T14:17:20;26.90;99.90
15288;DHT22;7745;48.708;9.026;2022-07-23T14:19:47;26.90;99.90
15288;DHT22;7745;48.708;9.026;2022-07-23T14:22:14;27.00;99.90
15288;DHT22;7745;48.708;9.026;2022-07-23T14:24:41;27.00;99.90
15288;DHT22;7745;48.708;9.026;2022-07-23T14:27:08;27.10;99.90
15288;DHT22;7745;48.708;9.026;2022-07-23T14:29:35;27.10;99.90
15288;DHT22;7745;48.708;9.026;2022-07-23T14:32:03;27.10;99.90
15288;DHT22;7745;48.708;9.026;2022-07-23T14:34:30;27.10;99.90
15288;DHT22;7745;48.708;9.026;2022-07-23T14:36:58;27.10;99.90
15288;DHT22;7745;48.708;9.026;2022-07-23T14:39:25;27.10;99.90
15288;DHT22;7745;48.708;9.026;2022-07-23T14:41:52;27.20;99.90
15288;DHT22;7745;48.708;9.026;2022-07-23T14:44:19;27.30;99.90
15288;DHT22;7745;48.708;9.026;2022-07-23T14:46:45;27.40;99.90
15288;DHT22;7745;48.708;9.026;2022-07-23T14:49:14;27.30;99.90
15288;DHT22;7745;48.708;9.026;2022-07-23T14:51:41;27.30;99.90
15288;DHT22;7745;48.708;9.026;2022-07-23T14:54:09;27.30;99.90
15288;DHT22;7745;48.708;9.026;2022-07-23T14:56:36;27.40;99.90
15288;DHT22;7745;48.708;9.026;2022-07-23T14:59:02;27.40;99.90
15288;DHT22;7745;48.708;9.026;2022-07-23T15:01:29;27.50;99.90
15288;DHT22;7745;48.708;9.026;2022-07-23T15:03:56;27.60;99.90
15288;DHT22;7745;48.708;9.026;2022-07-23T15:06:25;27.60;99.90
15288;DHT22;7745;48.708;9.026;2022-07-23T15:08:52;27.60;99.90
15288;DHT22;7745;48.708;9.026;2022-07-23T15:11:19;27.70;99.90
15288;DHT22;7745;48.708;9.026;2022-07-23T15:13:46;27.70;99.90
15288;DHT22;7745;48.708;9.026;2022-07-23T15:16:13;27.70;99.90
15288;DHT22;7745;48.708;9.026;2022-07-23T15:18:40;27.80;99.90
15288;DHT22;7745;48.708;9.026;2022-07-23T15:21:07;27.80;99.90
15288;DHT22;7745;48.708;9.026;2022-07-23T15:23:35;27.90;99.90
15288;DHT22;7745;48.708;9.026;2022-07-23T15:26:05;27.90;99.90
15288;DHT22;7745;48.708;9.026;2022-07-23T15:28:33;28.00;99.90
15288;DHT22;7745;48.708;9.026;2022-07-23T15:31:00;27.90;99.90
15288;DHT22;7745;48.708;9.026;2022-07-23T15:33:27;27.90;99.90
15288;DHT22;7745;48.708;9.026;2022-07-23T15:35:54;27.90;99.90
15288;DHT22;7745;48.708;9.026;2022-07-23T15:38:23;27.90;99.90
15288;DHT22;7745;48.708;9.026;2022-07-23T15:40:51;28.00;99.90
15288;DHT22;7745;48.708;9.026;2022-07-23T15:43:18;28.10;99.90
15288;DHT22;7745;48.708;9.026;2022-07-23T15:45:45;28.10;99.90
15288;DHT22;7745;48.708;9.026;2022-07-23T15:48:12;28.20;99.90
15288;DHT22;7745;48.708;9.026;2022-07-23T15:50:39;28.20;99.90
15288;DHT22;7745;48.708;9.026;2022-07-23T15:53:06;28.30;99.90